Time;durP1;ratioP1;P1;durP2;ratioP2;P2;SDS_P1;SDS_P2;PMS_P1;PMS_P2;Temp;Humidity;BMP_temperature;BMP_pressure;BME280_temperature;BME280_humidity;BME280_pressure;Samples;Min_cycle;Max_cycle;Signal;HPM_P1;HPM_P2
2023/01/29 00:05:45;;;;;;;37.33;16.77;;;;;;;-1.60;90.52;103026.34;4966518;29;20048;-96
2023/01/29 00:15:58;;;;;;;37.45;16.30;;;;;;;-1.47;90.30;103022.56;4926145;23;20053;-90
2023/01/29 00:18:24;;;;;;;56.10;23.85;;;;;;;-1.43;90.06;103019.59;4804301;23;20052;-89
2023/01/29 00:23:24;;;;;;;83.57;32.65;;;;;;;-1.37;90.83;103004.91;5070879;23;20057;-89
2023/01/29 00:28:24;;;;;;;40.70;19.30;;;;;;;-1.29;90.72;103004.09;4077051;23;20683;-90
2023/01/29 00:30:50;;;;;;;41.65;19.20;;;;;;;-1.28;90.56;103004.97;5153068;23;20240;-90
2023/01/29 00:33:15;;;;;;;33.83;15.18;;;;;;;-1.25;90.79;103011.31;4197703;23;20347;-90
2023/01/29 00:36:07;;;;;;;32.90;15.25;;;;;;;-1.20;90.56;103010.91;4497791;23;20300;-89
2023/01/29 00:38:33;;;;;;;36.55;17.33;;;;;;;-1.21;91.01;103004.88;4983533;28;20046;-90
2023/01/29 00:46:17;;;;;;;33.45;15.38;;;;;;;-1.16;90.52;103000.25;4325765;23;20064;-96
2023/01/29 00:48:42;;;;;;;41.92;17.48;;;;;;;-1.18;89.84;102983.84;5007228;28;20443;-95
2023/01/29 00:51:07;;;;;;;31.45;14.25;;;;;;;-1.29;90.54;102977.59;5004460;28;20104;-95
2023/01/29 00:53:33;;;;;;;41.20;18.52;;;;;;;-1.41;90.47;102969.53;5012311;28;20034;-96
2023/01/29 00:55:58;;;;;;;34.65;15.52;;;;;;;-1.46;91.07;102973.25;5091891;23;20090;-90
2023/01/29 00:58:27;;;;;;;54.80;22.45;;;;;;;-1.47;91.52;102974.00;5106959;23;20049;-90
2023/01/29 01:01:03;;;;;;;37.38;15.95;;;;;;;-1.44;90.88;102969.19;5184901;23;20053;31
2023/01/29 01:14:24;;;;;;;34.03;15.00;;;;;;;-1.38;90.73;102977.50;4960849;28;20042;-90
2023/01/29 01:19:25;;;;;;;45.45;19.88;;;;;;;-1.38;90.80;102969.84;3954648;23;20420;-91
2023/01/29 01:21:53;;;;;;;58.58;24.75;;;;;;;-1.40;90.60;102968.78;4968171;23;20030;-91
2023/01/29 01:24:19;;;;;;;54.97;24.45;;;;;;;-1.41;90.91;102966.97;5177503;23;20060;-91
2023/01/29 01:29:18;;;;;;;49.92;21.75;;;;;;;-1.40;90.91;102961.13;4183843;23;20069;-90
2023/01/29 01:31:46;;;;;;;49.88;22.10;;;;;;;-1.41;90.45;102972.97;5004423;28;20073;-90
2023/01/29 01:36:45;;;;;;;35.88;16.08;;;;;;;-1.42;90.51;102973.75;5070604;23;20065;-90
2023/01/29 01:39:10;;;;;;;46.47;20.88;;;;;;;-1.43;89.81;102978.69;4823152;23;20935;-91
2023/01/29 01:46:42;;;;;;;36.28;16.27;;;;;;;-1.56;90.78;102971.38;5151054;23;20054;-91
2023/01/29 01:49:15;;;;;;;65.43;29.02;;;;;;;-1.58;90.89;102960.97;5003000;28;20416;-91
2023/01/29 01:54:23;;;;;;;39.60;17.60;;;;;;;-1.57;90.41;102959.31;5190277;23;20065;-91
2023/01/29 01:56:54;;;;;;;42.97;19.45;;;;;;;-1.58;90.46;102970.28;4784000;23;20187;-96
2023/01/29 02:09:59;;;;;;;32.55;14.57;;;;;;;-1.63;91.18;102981.69;5093762;23;20050;-91
2023/01/29 02:17:30;;;;;;;38.58;17.58;;;;;;;-1.61;91.46;102977.63;4423043;23;20054;-91
2023/01/29 02:20:16;;;;;;;38.55;17.80;;;;;;;-1.59;91.21;102982.16;4799886;23;22368;-91
2023/01/29 02:23:07;;;;;;;43.58;20.05;;;;;;;-1.57;91.37;102980.66;5002632;28;20027;-91
2023/01/29 02:25:39;;;;;;;49.03;22.50;;;;;;;-1.56;91.69;102984.16;4821667;23;20747;-91
2023/01/29 02:34:13;;;;;;;37.55;16.98;;;;;;;-1.49;91.21;102993.34;3499278;23;21235;-90
2023/01/29 02:39:43;;;;;;;34.85;16.92;;;;;;;-1.50;91.54;102989.00;4547207;23;20408;-91
2023/01/29 02:42:26;;;;;;;40.53;18.25;;;;;;;-1.49;91.98;102983.13;4823132;23;20615;-91
2023/01/29 02:45:00;;;;;;;40.17;17.20;;;;;;;-1.49;91.91;102978.94;5293261;23;20233;-91
2023/01/29 02:47:39;;;;;;;34.28;16.08;;;;;;;-1.48;92.24;102977.28;5023162;23;20030;-91
2023/01/29 02:50:22;;;;;;;50.20;21.33;;;;;;;-1.50;91.89;102974.56;4986992;28;20784;-91
2023/01/29 02:52:53;;;;;;;40.78;17.85;;;;;;;-1.50;92.06;102976.22;5017228;23;20116;-90
2023/01/29 02:55:20;;;;;;;102.35;35.60;;;;;;;-1.48;91.85;102974.72;4469671;23;20058;-91
2023/01/29 03:03:43;;;;;;;65.03;25.20;;;;;;;-1.44;92.64;102976.88;4624532;23;20989;-89
2023/01/29 03:06:29;;;;;;;35.67;16.42;;;;;;;-1.43;92.51;102977.03;4788950;23;20139;-91
2023/01/29 03:08:58;;;;;;;56.53;23.23;;;;;;;-1.41;92.26;102974.63;3539569;23;20915;-90
2023/01/29 03:17:31;;;;;;;38.95;16.35;;;;;;;-1.34;91.87;102964.31;5003713;28;20065;-91
2023/01/29 03:19:57;;;;;;;39.20;17.95;;;;;;;-1.35;92.49;102967.59;5072059;23;20030;-89
2023/01/29 03:22:23;;;;;;;36.72;16.90;;;;;;;-1.32;92.14;102973.06;4430856;23;20845;-90
2023/01/29 03:33:06;;;;;;;32.22;15.38;;;;;;;-1.27;92.66;102964.22;5163147;23;20084;-91
2023/01/29 03:35:48;;;;;;;;;;;;;;;;;;;;;
2023/01/29 03:38:28;;;;;;;34.20;15.80;;;;;;;-1.21;93.20;102968.19;4697673;23;20420;-91
2023/01/29 03:41:11;;;;;;;36.00;15.77;;;;;;;-1.18;92.74;102958.28;5109728;23;1262902;-92
2023/01/29 03:46:55;;;;;;;35.88;15.40;;;;;;;-1.17;92.59;102957.50;4642140;23;20047;-91
2023/01/29 03:52:24;;;;;;;33.05;15.65;;;;;;;-1.15;92.53;102958.59;4392990;23;20057;-91
2023/01/29 03:55:00;;;;;;;34.28;15.90;;;;;;;-1.15;92.88;102944.13;5117406;23;20087;-91
2023/01/29 03:57:34;;;;;;;33.28;15.93;;;;;;;-1.15;92.38;102941.56;5070586;23;20050;-96
2023/01/29 04:00:22;;;;;;;35.63;16.83;;;;;;;-1.15;92.71;102940.69;5023506;28;20037;-96
2023/01/29 04:03:12;;;;;;;33.38;15.85;;;;;;;-1.12;92.99;102943.56;5030194;28;20022;-96
2023/01/29 04:06:08;;;;;;;33.78;15.35;;;;;;;-1.09;92.83;102936.19;5029391;28;20033;-96
2023/01/29 04:12:58;;;;;;;31.45;15.52;;;;;;;-1.02;93.05;102932.66;4970207;28;20112;-96
2023/01/29 04:15:45;;;;;;;30.65;14.38;;;;;;;-1.05;92.72;102926.44;4942361;28;20019;-96
2023/01/29 04:18:35;;;;;;;33.35;16.58;;;;;;;-1.03;92.57;102921.47;4973046;28;20065;-96
2023/01/29 04:21:17;;;;;;;33.43;15.93;;;;;;;-1.02;92.62;102922.41;4950569;28;20479;-96
2023/01/29 04:23:56;;;;;;;33.30;15.35;;;;;;;-0.99;93.08;102917.59;4956321;28;20588;-96
2023/01/29 04:26:57;;;;;;;31.58;15.23;;;;;;;-0.97;92.82;102922.16;4978268;28;20026;-96
2023/01/29 04:30:17;;;;;;;35.28;16.33;;;;;;;-0.99;93.16;102918.50;5026064;28;20021;-96
2023/01/29 04:33:04;;;;;;;34.65;15.93;;;;;;;-0.95;92.69;102942.78;4954441;28;20534;-96
2023/01/29 04:39:45;;;;;;;34.50;16.17;;;;;;;-0.94;93.02;102922.47;4922090;29;20051;-96
2023/01/29 04:46:38;;;;;;;31.73;14.75;;;;;;;-0.91;92.94;102899.75;4916016;29;20043;-96
2023/01/29 04:49:34;;;;;;;35.25;15.77;;;;;;;-0.85;93.29;102893.41;4846378;29;20046;-96
2023/01/29 04:52:37;;;;;;;32.33;15.90;;;;;;;-0.82;92.93;102886.09;4858362;29;20025;-96
2023/01/29 04:55:40;;;;;;;35.33;15.75;;;;;;;-0.82;93.53;102886.97;4859522;29;20070;-96
2023/01/29 04:58:51;;;;;;;34.95;15.07;;;;;;;-0.80;93.10;102876.91;4838162;29;20051;-96
2023/01/29 05:01:52;;;;;;;37.90;16.77;;;;;;;-0.79;93.38;102871.94;4845532;29;20489;-96
2023/01/29 05:05:05;;;;;;;37.17;17.08;;;;;;;-0.76;93.60;102866.22;4863014;29;20037;-96
2023/01/29 05:07:45;;;;;;;36.22;16.58;;;;;;;-0.79;93.12;102874.50;4105249;23;20274;-90
2023/01/29 05:10:20;;;;;;;39.78;17.35;;;;;;;-0.76;93.44;102868.78;5148933;23;20046;-91
2023/01/29 05:13:02;;;;;;;38.80;17.63;;;;;;;-0.75;93.59;102868.06;5004495;28;20634;-92
2023/01/29 05:15:40;;;;;;;37.85;16.77;;;;;;;-0.76;93.67;102868.78;5118092;23;20062;-92
2023/01/29 05:18:09;;;;;;;39.17;17.53;;;;;;;-0.73;93.36;102866.53;5018075;28;20033;-91
2023/01/29 05:20:42;;;;;;;40.10;17.40;;;;;;;-0.72;94.13;102868.34;5141798;23;20022;-91
2023/01/29 05:25:37;;;;;;;37.67;17.70;;;;;;;-0.67;93.47;102861.13;4482036;23;20089;-91
2023/01/29 05:31:02;;;;;;;39.78;18.42;;;;;;;-0.63;93.51;102853.03;4348592;23;20070;-92
2023/01/29 05:33:30;;;;;;;38.25;17.15;;;;;;;-0.62;93.86;102850.63;5236116;23;20061;-91
2023/01/29 05:35:58;;;;;;;38.15;18.10;;;;;;;-0.61;93.43;102841.28;5057537;23;20034;-89
2023/01/29 05:38:34;;;;;;;;;;;;;;;;;;;;;
2023/01/29 05:40:52;;;;;;;41.15;19.38;;;;;;;-0.61;94.01;102844.75;4813352;23;20054;-91
2023/01/29 05:43:24;;;;;;;37.90;17.95;;;;;;;-0.61;93.91;102849.88;4784984;23;20088;-91
2023/01/29 05:54:53;;;;;;;45.08;19.10;;;;;;;-0.59;94.19;102852.59;5078038;23;20060;-91
2023/01/29 05:57:20;;;;;;;37.25;18.25;;;;;;;-0.58;93.75;102857.88;5078049;23;20058;-91
2023/01/29 05:59:46;;;;;;;39.78;17.83;;;;;;;-0.58;93.79;102863.00;4968220;28;20044;-92
2023/01/29 06:04:54;;;;;;;40.30;18.48;;;;;;;-0.56;94.04;102864.03;4252173;23;20054;-92
2023/01/29 06:07:19;;;;;;;39.17;17.60;;;;;;;-0.54;94.02;102864.19;5103874;23;20063;-90
2023/01/29 06:10:17;;;;;;;42.22;19.50;;;;;;;-0.51;94.41;102876.41;5125179;23;20986;31
2023/01/29 06:15:29;;;;;;;42.05;19.30;;;;;;;-0.48;93.24;102875.03;4643172;23;20248;-91
2023/01/29 06:18:00;;;;;;;37.85;18.65;;;;;;;-0.45;94.07;102874.44;4947226;23;20038;-91
2023/01/29 06:20:30;;;;;;;39.63;18.15;;;;;;;-0.43;93.99;102890.91;4986543;28;20132;-92
2023/01/29 06:28:08;;;;;;;45.72;20.42;;;;;;;-0.40;93.25;102894.66;4257703;26;20108;-91
2023/01/29 06:35:46;;;;;;;44.55;20.88;;;;;;;-0.39;93.63;102849.44;3997902;23;20111;-91
2023/01/29 06:46:36;;;;;;;41.15;19.85;;;;;;;-0.39;94.05;102849.44;3851314;23;20062;-91
2023/01/29 06:49:04;;;;;;;41.72;19.60;;;;;;;-0.40;94.50;102857.91;5004938;28;20046;-91
2023/01/29 06:54:07;;;;;;;44.40;19.38;;;;;;;-0.39;94.14;102852.94;3618775;23;20117;-91
2023/01/29 06:56:33;;;;;;;44.17;20.60;;;;;;;-0.40;94.10;102835.75;5385695;23;20033;-91
2023/01/29 07:06:35;;;;;;;43.30;20.42;;;;;;;-0.37;93.85;102837.72;4822529;23;20037;-92
2023/01/29 07:09:06;;;;;;;44.65;20.35;;;;;;;-0.35;94.13;102836.19;5082844;23;20054;-91
2023/01/29 07:14:17;;;;;;;46.75;20.33;;;;;;;-0.30;94.02;102837.59;4731607;23;20062;-91
2023/01/29 07:19:49;;;;;;;40.97;19.20;;;;;;;-0.28;93.74;102848.88;4974669;23;21092;31
2023/01/29 07:22:29;;;;;;;39.65;18.80;;;;;;;-0.28;93.62;102843.75;4902900;23;20394;31
2023/01/29 07:27:30;;;;;;;44.40;19.70;;;;;;;-0.27;93.11;102853.25;4859644;23;20053;-91
2023/01/29 07:32:41;;;;;;;41.88;20.40;;;;;;;-0.26;93.43;102852.50;3415158;23;20410;-91
2023/01/29 07:38:22;;;;;;;42.08;20.08;;;;;;;-0.23;94.03;102834.88;4952203;23;20061;-91
2023/01/29 07:40:51;;;;;;;44.78;19.75;;;;;;;-0.24;93.63;102834.72;4925205;29;20039;-92
2023/01/29 07:46:09;;;;;;;42.05;20.10;;;;;;;-0.24;93.65;102829.59;4726171;23;20069;-92
2023/01/29 07:48:37;;;;;;;45.40;20.92;;;;;;;-0.22;94.24;102844.38;5193315;23;20053;-91
2023/01/29 07:53:48;;;;;;;42.25;19.77;;;;;;;-0.20;93.51;102842.88;4910550;23;20298;-92
2023/01/29 07:56:19;;;;;;;44.78;20.58;;;;;;;-0.20;93.68;102853.13;4298193;23;20374;-92
2023/01/29 07:58:44;;;;;;;42.35;20.42;;;;;;;-0.18;94.06;102850.69;4544520;23;20065;-91
2023/01/29 08:01:10;;;;;;;44.50;20.40;;;;;;;-0.16;93.76;102835.47;4736355;23;21374;-91
2023/01/29 08:03:41;;;;;;;40.85;19.85;;;;;;;-0.16;93.53;102833.81;4193174;23;20229;-91
2023/01/29 08:06:18;;;;;;;42.40;20.95;;;;;;;-0.14;93.67;102832.31;4947568;28;20394;-91
2023/01/29 08:08:44;;;;;;;42.85;20.20;;;;;;;-0.15;92.83;102829.63;4243031;23;20054;-91
2023/01/29 08:11:10;;;;;;;46.00;21.20;;;;;;;-0.16;94.01;102833.81;4965408;28;21119;-92
2023/01/29 08:13:40;;;;;;;40.88;19.75;;;;;;;-0.18;94.05;102823.41;4678155;23;20277;-91
2023/01/29 08:16:06;;;;;;;42.88;20.00;;;;;;;-0.16;93.28;102820.09;5114014;23;20042;-91
2023/01/29 08:18:32;;;;;;;41.53;19.77;;;;;;;-0.13;93.51;102825.53;4954015;28;20049;-91
2023/01/29 08:21:01;;;;;;;41.38;19.92;;;;;;;-0.12;93.39;102835.03;5281684;23;20036;-91
2023/01/29 08:23:29;;;;;;;44.08;20.75;;;;;;;-0.11;93.53;102827.50;5175808;23;20088;-91
2023/01/29 08:26:01;;;;;;;43.08;19.83;;;;;;;-0.09;93.34;102825.09;4315527;23;20369;-89
2023/01/29 08:28:34;;;;;;;43.53;21.10;;;;;;;-0.09;93.04;102820.84;4474661;23;20055;-92
2023/01/29 08:33:57;;;;;;;40.20;19.50;;;;;;;-0.07;92.86;102806.56;5184112;23;20048;-96
2023/01/29 08:36:38;;;;;;;40.92;20.30;;;;;;;-0.04;93.83;102813.66;5010621;28;20056;-96
2023/01/29 08:39:14;;;;;;;;;;;;;;;;;;;;;
2023/01/29 08:41:47;;;;;;;41.65;19.88;;;;;;;-0.07;92.99;102804.00;5022963;28;20081;-96
2023/01/29 08:44:36;;;;;;;39.40;19.67;;;;;;;-0.06;92.78;102797.19;5009132;28;20029;-96
2023/01/29 08:47:07;;;;;;;41.42;19.88;;;;;;;-0.03;92.72;102789.81;5004293;28;20056;-96
2023/01/29 08:50:11;;;;;;;41.70;20.75;;;;;;;-0.03;93.32;102789.81;5007673;28;20026;-96
2023/01/29 08:53:18;;;;;;;41.78;19.70;;;;;;;-0.02;92.84;102789.94;5004944;28;20038;-96
2023/01/29 08:59:04;;;;;;;;;;;;;;;;;;;;;
2023/01/29 09:02:13;;;;;;;;;;;;;;;;;;;;;
2023/01/29 09:07:20;;;;;;;40.75;19.50;;;;;;;0.01;92.86;102797.03;4809350;23;20078;-91
2023/01/29 09:12:40;;;;;;;37.70;18.73;;;;;;;0.06;92.46;102792.34;3078148;23;20165;-91
2023/01/29 09:15:09;;;;;;;38.40;18.55;;;;;;;0.08;92.35;102794.31;5166746;23;20082;-91
2023/01/29 09:17:39;;;;;;;41.92;20.42;;;;;;;0.10;92.58;102782.59;4965380;28;20034;-91
2023/01/29 09:20:10;;;;;;;37.47;19.15;;;;;;;0.13;92.81;102782.88;4966380;28;20030;-91
2023/01/29 09:22:39;;;;;;;40.47;19.30;;;;;;;0.15;92.51;102780.47;5124537;23;20968;-91
2023/01/29 09:25:08;;;;;;;40.65;18.90;;;;;;;0.17;92.85;102769.59;4948462;28;20518;-92
2023/01/29 09:27:33;;;;;;;34.10;17.75;;;;;;;0.21;91.88;102783.59;4948694;28;20034;-91
2023/01/29 09:32:41;;;;;;;35.92;18.70;;;;;;;0.27;92.54;102775.59;4976142;23;20042;-91
2023/01/29 09:37:50;;;;;;;35.35;18.15;;;;;;;0.30;91.91;102781.91;4265380;23;20073;-92
2023/01/29 09:40:25;;;;;;;37.28;19.38;;;;;;;0.32;92.00;102784.66;5166679;23;20050;-92
2023/01/29 09:45:29;;;;;;;38.97;19.45;;;;;;;0.37;91.71;102777.41;4180556;23;20065;-92
2023/01/29 09:48:08;;;;;;;38.08;19.80;;;;;;;0.41;91.67;102782.06;4871625;23;20058;-92
2023/01/29 10:01:43;;;;;;;34.40;17.73;;;;;;;0.52;90.76;102777.22;4798634;26;20046;-92
2023/01/29 10:09:22;;;;;;;35.25;18.42;;;;;;;0.59;90.29;102785.47;4412095;23;21108;-89
2023/01/29 10:17:26;;;;;;;35.05;17.88;;;;;;;0.66;90.68;102788.75;4180168;23;20042;-96
2023/01/29 10:25:09;;;;;;;35.00;18.55;;;;;;;0.72;89.91;102780.75;4593046;23;20066;-93
2023/01/29 10:30:42;;;;;;;32.17;17.52;;;;;;;0.76;89.95;102777.72;3007577;23;20261;-93
2023/01/29 10:47:54;;;;;;;32.53;18.55;;;;;;;0.90;89.19;102763.63;4508699;23;20940;-95
2023/01/29 10:56:04;;;;;;;32.25;18.05;;;;;;;1.02;89.33;102763.88;5424261;23;20093;-95
2023/01/29 11:01:18;;;;;;;33.80;17.50;;;;;;;1.06;89.77;102749.66;5199552;23;20058;-95
2023/01/29 11:03:43;;;;;;;33.85;17.63;;;;;;;1.10;89.04;102751.75;5181443;23;20049;-95
2023/01/29 11:06:29;;;;;;;32.35;17.48;;;;;;;1.13;88.50;102747.81;4987019;28;20034;-96
2023/01/29 11:14:25;;;;;;;29.70;16.27;;;;;;;1.24;88.70;102725.69;3693995;23;20058;-95
2023/01/29 11:23:02;;;;;;;31.33;17.23;;;;;;;1.41;88.57;102710.91;1885316;23;20476;-95
2023/01/29 11:28:12;;;;;;;31.98;16.10;;;;;;;1.46;88.09;102689.09;5236534;23;20057;-96
2023/01/29 11:30:46;;;;;;;29.52;16.80;;;;;;;1.47;86.82;102691.81;5367050;23;20046;-95
2023/01/29 11:36:13;;;;;;;29.48;16.25;;;;;;;1.53;86.11;102674.38;2532919;23;20022;31
2023/01/29 11:38:41;;;;;;;31.65;16.88;;;;;;;1.55;86.04;102665.16;5044039;23;20022;-96
2023/01/29 11:46:58;;;;;;;34.13;17.75;;;;;;;1.61;86.08;102651.97;5367300;23;20077;-96
2023/01/29 15:17:39;;;;;;;42.47;23.75;;;;;;;2.41;86.28;102393.94;763199;23;21644;-95
2023/01/29 15:20:41;;;;;;;45.50;24.70;;;;;;;2.41;85.69;102387.91;4899637;29;20095;-95
2023/01/29 15:23:27;;;;;;;38.33;20.85;;;;;;;2.42;85.99;102389.72;4914669;29;20644;-96
2023/01/29 15:26:10;;;;;;;40.15;21.35;;;;;;;2.42;85.57;102377.75;4899103;29;20032;-94
2023/01/29 15:28:39;;;;;;;37.17;19.80;;;;;;;2.43;85.22;102378.63;4914691;29;20474;-96
2023/01/29 15:31:12;;;;;;;36.90;19.80;;;;;;;2.40;85.17;102370.66;4921113;29;20023;-96
2023/01/29 15:33:47;;;;;;;36.28;18.50;;;;;;;2.40;85.51;102371.59;4915361;29;20050;-96
2023/01/29 15:36:37;;;;;;;38.67;19.02;;;;;;;2.42;85.85;102374.28;4913842;29;20561;-96
2023/01/29 15:39:14;;;;;;;35.42;17.60;;;;;;;2.42;85.49;102366.56;4895052;29;20508;-96
2023/01/29 15:41:42;;;;;;;36.10;17.27;;;;;;;2.40;85.50;102361.31;4900222;29;20028;-96
2023/01/29 15:44:22;;;;;;;36.28;18.77;;;;;;;2.42;85.23;102361.44;4915998;29;20024;-96
2023/01/29 15:46:57;;;;;;;34.72;18.05;;;;;;;2.43;85.72;102360.63;4914359;29;20023;-96
2023/01/29 15:49:30;;;;;;;32.95;18.45;;;;;;;2.41;86.04;102354.47;4899315;29;20039;-94
2023/01/29 15:51:58;;;;;;;35.47;18.75;;;;;;;2.40;85.65;102347.53;4899135;29;20036;-95
2023/01/29 15:54:25;;;;;;;35.80;17.88;;;;;;;2.42;85.43;102351.13;4919916;29;20097;-96
2023/01/29 15:56:52;;;;;;;34.60;17.55;;;;;;;2.40;84.54;102340.72;4897380;29;20155;-95
2023/01/29 15:59:25;;;;;;;32.47;17.25;;;;;;;2.42;85.00;102340.84;4914777;29;20412;-95
2023/01/29 16:04:30;;;;;;;33.03;17.80;;;;;;;2.39;85.55;102335.44;4282851;23;20134;-94
2023/01/29 16:07:00;;;;;;;34.78;19.67;;;;;;;2.39;85.61;102335.44;4930493;29;20051;-95
2023/01/29 16:09:27;;;;;;;32.70;18.25;;;;;;;2.39;85.13;102332.84;4942805;28;20516;-95
2023/01/29 16:20:44;;;;;;;;;;;;;;;;;;;;;
2023/01/29 18:11:10;;;;;;;26.90;15.27;;;;;;;2.35;85.86;102251.97;4165997;23;21292;-96
2023/01/29 18:13:44;;;;;;;28.75;14.63;;;;;;;2.34;86.45;102257.00;4975276;23;20130;-96
2023/01/29 19:52:13;;;;;;;36.50;17.35;;;;;;;2.30;93.30;102085.22;3713888;23;20330;-96
2023/01/29 19:54:51;;;;;;;32.40;16.30;;;;;;;2.31;93.41;102080.19;4943249;29;20063;-96
2023/01/29 20:12:55;;;;;;;35.38;18.52;;;;;;;2.37;93.83;102065.22;4991906;28;20042;-96
2023/01/29 20:15:23;;;;;;;39.78;17.83;;;;;;;2.38;94.03;102079.00;4977992;28;20090;-96
2023/01/29 20:18:01;;;;;;;36.45;18.13;;;;;;;2.39;94.12;102075.63;4990811;28;20117;-96
2023/01/29 20:20:29;;;;;;;44.47;23.33;;;;;;;2.40;94.25;102082.56;4992172;28;20038;-96
2023/01/29 20:25:55;;;;;;;39.45;18.33;;;;;;;2.43;94.68;102086.28;4968855;23;20051;-96
2023/01/29 21:39:46;;;;;;;41.03;19.55;;;;;;;2.82;98.17;102041.97;4987907;28;20046;-96
2023/01/29 22:47:45;;;;;;;45.88;21.00;;;;;;;3.18;100.00;101932.16;3047815;23;20295;-96
2023/01/29 22:50:11;;;;;;;45.03;21.08;;;;;;;3.19;100.00;101944.25;4987513;28;20030;-96
2023/01/29 22:52:52;;;;;;;43.90;21.42;;;;;;;3.19;100.00;101937.41;4976124;28;20427;-96
2023/01/29 22:55:17;;;;;;;44.53;20.80;;;;;;;3.22;100.00;101929.00;4970878;28;20064;-96
2023/01/29 22:57:42;;;;;;;46.72;21.05;;;;;;;3.21;100.00;101922.94;4972380;28;20114;-96
2023/01/29 23:00:11;;;;;;;45.00;20.92;;;;;;;3.23;100.00;101923.97;4970657;28;20496;-96
2023/01/29 23:02:37;;;;;;;45.00;21.85;;;;;;;3.24;100.00;101938.59;4974347;28;20034;-96
2023/01/29 23:05:03;;;;;;;48.38;22.25;;;;;;;3.25;100.00;101919.78;4971097;28;20038;-96
2023/01/29 23:07:29;;;;;;;50.88;23.00;;;;;;;3.29;100.00;101932.09;4970657;28;20022;-96
2023/01/29 23:09:57;;;;;;;48.95;22.88;;;;;;;3.28;100.00;101932.00;4973837;28;20388;-96
2023/01/29 23:12:25;;;;;;;52.30;22.77;;;;;;;3.29;100.00;101908.94;4970166;28;20027;-96
2023/01/29 23:14:51;;;;;;;45.25;21.00;;;;;;;3.31;100.00;101885.84;4979257;28;20285;-96
2023/01/29 23:17:16;;;;;;;47.45;22.52;;;;;;;3.33;100.00;101860.19;4972067;28;20029;-96
2023/01/29 23:19:42;;;;;;;51.05;22.80;;;;;;;3.31;100.00;101862.66;4970905;28;20034;-96
2023/01/29 23:22:07;;;;;;;50.05;22.05;;;;;;;3.35;100.00;101871.53;4971733;28;20054;-96
2023/01/29 23:24:33;;;;;;;48.22;22.42;;;;;;;3.36;100.00;101887.06;4972170;28;20061;-96
2023/01/29 23:27:13;;;;;;;47.15;22.70;;;;;;;3.39;100.00;101901.81;4975413;28;20026;-96
2023/01/29 23:29:48;;;;;;;48.00;22.17;;;;;;;3.41;100.00;101890.84;4970735;28;20077;-96
2023/01/29 23:32:20;;;;;;;48.65;21.83;;;;;;;3.42;100.00;101887.50;4972172;28;20030;-96
2023/01/29 23:34:48;;;;;;;48.05;21.88;;;;;;;3.44;100.00;101880.75;4971756;28;20042;-96
2023/01/29 23:37:19;;;;;;;48.35;21.80;;;;;;;3.46;100.00;101868.91;4973045;28;20022;-96
2023/01/29 23:39:45;;;;;;;47.75;21.48;;;;;;;3.49;100.00;101863.06;4982680;28;20403;-96
2023/01/29 23:42:10;;;;;;;46.35;22.08;;;;;;;3.53;100.00;101861.56;4991910;28;20034;-96
2023/01/29 23:44:36;;;;;;;49.35;22.40;;;;;;;3.55;100.00;101857.41;4975003;28;20029;-96
2023/01/29 23:47:01;;;;;;;46.60;22.52;;;;;;;3.57;100.00;101851.56;4964247;28;20027;-96
2023/01/29 23:49:36;;;;;;;48.67;21.75;;;;;;;3.61;100.00;101848.41;4972800;28;20055;-96
2023/01/29 23:52:03;;;;;;;46.90;21.50;;;;;;;3.64;100.00;101851.19;4972752;28;20046;-96
2023/01/29 23:54:31;;;;;;;47.00;22.27;;;;;;;3.68;100.00;101848.81;4970817;28;20039;-96
